sensor_id;sensor_type;location;lat;lon;timestamp;temperature;humidity
8436;DHT22;4255;48.730;9.156;2024-03-23T00:55:54;11.50;99.90
8436;DHT22;4255;48.730;9.156;2024-03-23T00:58:20;11.50;99.90
8436;DHT22;4255;48.730;9.156;2024-03-23T01:00:46;11.50;99.90
8436;DHT22;4255;48.730;9.156;2024-03-23T01:03:11;11.40;99.90
8436;DHT22;4255;48.730;9.156;2024-03-23T01:05:37;11.50;99.90
8436;DHT22;4255;48.730;9.156;2024-03-23T01:08:02;11.40;99.90
8436;DHT22;4255;48.730;9.156;2024-03-23T01:10:28;11.50;99.90
8436;DHT22;4255;48.730;9.156;2024-03-23T01:12:53;11.50;99.90
8436;DHT22;4255;48.730;9.156;2024-03-23T01:15:19;11.50;99.90
8436;DHT22;4255;48.730;9.156;2024-03-23T01:17:45;11.60;99.90
8436;DHT22;4255;48.730;9.156;2024-03-23T01:20:10;11.60;99.90
8436;DHT22;4255;48.730;9.156;2024-03-23T01:22:36;11.80;99.90
8436;DHT22;4255;48.730;9.156;2024-03-23T01:25:01;12.00;99.90
8436;DHT22;4255;48.730;9.156;2024-03-23T01:27:27;11.90;99.90
8436;DHT22;4255;48.730;9.156;2024-03-23T01:29:53;12.00;99.90
8436;DHT22;4255;48.730;9.156;2024-03-23T01:32:19;11.90;99.90
8436;DHT22;4255;48.730;9.156;2024-03-23T01:34:44;12.00;99.90
8436;DHT22;4255;48.730;9.156;2024-03-23T01:37:10;12.00;99.90
8436;DHT22;4255;48.730;9.156;2024-03-23T01:39:36;12.00;99.90
8436;DHT22;4255;48.730;9.156;2024-03-23T01:42:01;12.00;99.90
8436;DHT22;4255;48.730;9.156;2024-03-23T01:44:27;12.00;99.90
8436;DHT22;4255;48.730;9.156;2024-03-23T01:46:52;11.90;99.90
8436;DHT22;4255;48.730;9.156;2024-03-23T01:49:18;12.00;99.90
8436;DHT22;4255;48.730;9.156;2024-03-23T01:51:44;12.10;99.90
8436;DHT22;4255;48.730;9.156;2024-03-23T01:54:10;12.10;99.90
8436;DHT22;4255;48.730;9.156;2024-03-23T01:56:36;12.00;99.90
8436;DHT22;4255;48.730;9.156;2024-03-23T01:59:08;12.10;99.90
8436;DHT22;4255;48.730;9.156;2024-03-23T02:01:35;12.20;99.90
8436;DHT22;4255;48.730;9.156;2024-03-23T02:04:04;12.20;99.90
8436;DHT22;4255;48.730;9.156;2024-03-23T02:06:30;12.20;99.90
8436;DHT22;4255;48.730;9.156;2024-03-23T02:08:55;12.20;99.90
8436;DHT22;4255;48.730;9.156;2024-03-23T02:11:23;12.10;99.90
8436;DHT22;4255;48.730;9.156;2024-03-23T02:13:48;11.90;99.90
8436;DHT22;4255;48.730;9.156;2024-03-23T02:16:14;11.90;99.90
8436;DHT22;4255;48.730;9.156;2024-03-23T02:18:39;12.00;99.90
8436;DHT22;4255;48.730;9.156;2024-03-23T02:21:05;11.90;99.90
8436;DHT22;4255;48.730;9.156;2024-03-23T02:23:31;11.90;99.90
8436;DHT22;4255;48.730;9.156;2024-03-23T02:25:56;12.00;99.90
8436;DHT22;4255;48.730;9.156;2024-03-23T02:28:22;11.80;99.90
8436;DHT22;4255;48.730;9.156;2024-03-23T02:30:51;11.80;99.90
8436;DHT22;4255;48.730;9.156;2024-03-23T02:33:17;11.90;99.90
8436;DHT22;4255;48.730;9.156;2024-03-23T02:35:44;11.80;99.90
8436;DHT22;4255;48.730;9.156;2024-03-23T02:38:10;11.90;99.90
8436;DHT22;4255;48.730;9.156;2024-03-23T02:40:35;11.90;99.90
8436;DHT22;4255;48.730;9.156;2024-03-23T02:43:02;11.80;99.90
8436;DHT22;4255;48.730;9.156;2024-03-23T02:45:28;11.70;99.90
8436;DHT22;4255;48.730;9.156;2024-03-23T02:47:54;11.70;99.90
8436;DHT22;4255;48.730;9.156;2024-03-23T02:50:20;11.60;99.90
8436;DHT22;4255;48.730;9.156;2024-03-23T02:52:45;11.70;99.90
8436;DHT22;4255;48.730;9.156;2024-03-23T02:55:11;11.60;99.90
8436;DHT22;4255;48.730;9.156;2024-03-23T02:57:37;11.60;99.90
8436;DHT22;4255;48.730;9.156;2024-03-23T03:00:03;11.70;99.90
8436;DHT22;4255;48.730;9.156;2024-03-23T03:02:29;11.70;99.90
8436;DHT22;4255;48.730;9.156;2024-03-23T03:04:54;11.70;99.90
8436;DHT22;4255;48.730;9.156;2024-03-23T03:07:20;11.80;99.90
8436;DHT22;4255;48.730;9.156;2024-03-23T03:09:46;11.90;99.90
8436;DHT22;4255;48.730;9.156;2024-03-23T03:12:11;11.70;99.90
8436;DHT22;4255;48.730;9.156;2024-03-23T03:14:37;11.70;99.90
8436;DHT22;4255;48.730;9.156;2024-03-23T03:17:02;11.60;99.90
8436;DHT22;4255;48.730;9.156;2024-03-23T03:19:28;11.60;99.90
8436;DHT22;4255;48.730;9.156;2024-03-23T03:21:54;11.50;99.90
8436;DHT22;4255;48.730;9.156;2024-03-23T03:24:19;11.40;99.90
8436;DHT22;4255;48.730;9.156;2024-03-23T03:26:45;11.40;99.90
8436;DHT22;4255;48.730;9.156;2024-03-23T03:29:10;11.30;99.90
8436;DHT22;4255;48.730;9.156;2024-03-23T03:31:37;11.30;99.90
8436;DHT22;4255;48.730;9.156;2024-03-23T03:34:03;11.40;99.90
8436;DHT22;4255;48.730;9.156;2024-03-23T03:36:28;11.50;99.90
8436;DHT22;4255;48.730;9.156;2024-03-23T03:38:54;11.30;99.90
8436;DHT22;4255;48.730;9.156;2024-03-23T03:41:20;11.20;99.90
8436;DHT22;4255;48.730;9.156;2024-03-23T03:43:45;11.20;99.90
8436;DHT22;4255;48.730;9.156;2024-03-23T03:46:11;11.30;99.90
8436;DHT22;4255;48.730;9.156;2024-03-23T03:48:37;11.20;99.90
8436;DHT22;4255;48.730;9.156;2024-03-23T03:51:03;11.20;99.90
8436;DHT22;4255;48.730;9.156;2024-03-23T03:53:29;11.30;99.90
8436;DHT22;4255;48.730;9.156;2024-03-23T03:55:54;11.40;99.90
8436;DHT22;4255;48.730;9.156;2024-03-23T03:58:20;11.30;99.90
8436;DHT22;4255;48.730;9.156;2024-03-23T04:00:45;11.20;99.90
8436;DHT22;4255;48.730;9.156;2024-03-23T04:03:11;11.20;99.90
8436;DHT22;4255;48.730;9.156;2024-03-23T04:05:37;11.30;99.90
8436;DHT22;4255;48.730;9.156;2024-03-23T04:08:03;11.40;99.90
8436;DHT22;4255;48.730;9.156;2024-03-23T04:10:30;11.40;99.90
8436;DHT22;4255;48.730;9.156;2024-03-23T04:12:55;11.40;99.90
8436;DHT22;4255;48.730;9.156;2024-03-23T04:15:21;11.40;99.90
8436;DHT22;4255;48.730;9.156;2024-03-23T04:17:47;11.30;99.90
8436;DHT22;4255;48.730;9.156;2024-03-23T04:20:13;11.20;99.90
8436;DHT22;4255;48.730;9.156;2024-03-23T04:22:42;11.20;99.90
8436;DHT22;4255;48.730;9.156;2024-03-23T04:25:08;11.30;99.90
8436;DHT22;4255;48.730;9.156;2024-03-23T04:27:36;11.30;99.90
8436;DHT22;4255;48.730;9.156;2024-03-23T04:30:02;11.30;99.90
8436;DHT22;4255;48.730;9.156;2024-03-23T04:32:29;11.30;99.90
8436;DHT22;4255;48.730;9.156;2024-03-23T04:34:55;11.40;99.90
8436;DHT22;4255;48.730;9.156;2024-03-23T04:37:21;11.40;99.90
8436;DHT22;4255;48.730;9.156;2024-03-23T04:39:47;11.50;99.90
8436;DHT22;4255;48.730;9.156;2024-03-23T04:42:17;11.40;99.90
8436;DHT22;4255;48.730;9.156;2024-03-23T04:44:43;11.50;99.90
8436;DHT22;4255;48.730;9.156;2024-03-23T04:47:08;11.20;99.90
8436;DHT22;4255;48.730;9.156;2024-03-23T04:49:34;11.00;99.90
8436;DHT22;4255;48.730;9.156;2024-03-23T04:52:03;11.10;99.90
8436;DHT22;4255;48.730;9.156;2024-03-23T04:54:29;11.30;99.90
8436;DHT22;4255;48.730;9.156;2024-03-23T04:56:54;11.30;99.90
8436;DHT22;4255;48.730;9.156;2024-03-23T04:59:20;11.40;99.90
8436;DHT22;4255;48.730;9.156;2024-03-23T05:01:45;11.40;99.90
8436;DHT22;4255;48.730;9.156;2024-03-23T05:04:11;11.30;99.90
8436;DHT22;4255;48.730;9.156;2024-03-23T05:06:37;11.30;99.90
8436;DHT22;4255;48.730;9.156;2024-03-23T05:09:02;11.00;99.90
8436;DHT22;4255;48.730;9.156;2024-03-23T05:11:37;10.90;99.90
8436;DHT22;4255;48.730;9.156;2024-03-23T05:14:03;10.90;99.90
8436;DHT22;4255;48.730;9.156;2024-03-23T05:16:29;10.70;99.90
8436;DHT22;4255;48.730;9.156;2024-03-23T05:18:54;10.80;99.90
8436;DHT22;4255;48.730;9.156;2024-03-23T05:21:20;10.60;99.90
8436;DHT22;4255;48.730;9.156;2024-03-23T05:23:46;10.50;99.90
8436;DHT22;4255;48.730;9.156;2024-03-23T05:26:11;10.30;99.90
8436;DHT22;4255;48.730;9.156;2024-03-23T05:28:37;10.20;99.90
8436;DHT22;4255;48.730;9.156;2024-03-23T05:31:02;10.10;99.90
8436;DHT22;4255;48.730;9.156;2024-03-23T05:33:29;10.00;99.90
8436;DHT22;4255;48.730;9.156;2024-03-23T05:35:58;9.80;99.90
8436;DHT22;4255;48.730;9.156;2024-03-23T05:38:24;9.90;99.90
8436;DHT22;4255;48.730;9.156;2024-03-23T05:40:57;9.80;99.90
8436;DHT22;4255;48.730;9.156;2024-03-23T05:43:23;9.90;99.90
8436;DHT22;4255;48.730;9.156;2024-03-23T05:45:55;9.90;99.90
8436;DHT22;4255;48.730;9.156;2024-03-23T05:48:21;9.80;99.90
8436;DHT22;4255;48.730;9.156;2024-03-23T05:50:48;9.80;99.90
8436;DHT22;4255;48.730;9.156;2024-03-23T05:53:18;9.80;99.90
8436;DHT22;4255;48.730;9.156;2024-03-23T05:55:44;9.70;99.90
8436;DHT22;4255;48.730;9.156;2024-03-23T05:58:10;9.60;99.90
8436;DHT22;4255;48.730;9.156;2024-03-23T06:00:36;9.50;99.90
8436;DHT22;4255;48.730;9.156;2024-03-23T06:03:01;9.40;99.90
8436;DHT22;4255;48.730;9.156;2024-03-23T06:05:27;9.50;99.90
8436;DHT22;4255;48.730;9.156;2024-03-23T06:07:53;9.40;99.90
8436;DHT22;4255;48.730;9.156;2024-03-23T06:10:19;9.30;99.90
8436;DHT22;4255;48.730;9.156;2024-03-23T06:12:46;9.10;99.90
8436;DHT22;4255;48.730;9.156;2024-03-23T06:15:12;9.10;99.90
8436;DHT22;4255;48.730;9.156;2024-03-23T06:17:38;9.10;99.90
8436;DHT22;4255;48.730;9.156;2024-03-23T06:20:04;9.00;99.90
8436;DHT22;4255;48.730;9.156;2024-03-23T06:22:31;9.00;99.90
8436;DHT22;4255;48.730;9.156;2024-03-23T06:24:57;8.90;99.90
8436;DHT22;4255;48.730;9.156;2024-03-23T06:27:23;8.80;99.90
8436;DHT22;4255;48.730;9.156;2024-03-23T06:29:48;8.70;99.90
8436;DHT22;4255;48.730;9.156;2024-03-23T06:32:14;8.70;99.90
8436;DHT22;4255;48.730;9.156;2024-03-23T06:34:41;8.60;99.90
8436;DHT22;4255;48.730;9.156;2024-03-23T06:37:07;8.60;99.90
8436;DHT22;4255;48.730;9.156;2024-03-23T06:39:35;8.50;99.90
8436;DHT22;4255;48.730;9.156;2024-03-23T06:42:01;8.60;99.90
8436;DHT22;4255;48.730;9.156;2024-03-23T06:44:26;8.50;99.90
8436;DHT22;4255;48.730;9.156;2024-03-23T06:46:52;8.60;99.90
8436;DHT22;4255;48.730;9.156;2024-03-23T06:49:18;8.60;99.90
8436;DHT22;4255;48.730;9.156;2024-03-23T06:51:45;8.60;99.90
8436;DHT22;4255;48.730;9.156;2024-03-23T06:54:10;8.60;99.90
8436;DHT22;4255;48.730;9.156;2024-03-23T06:56:36;8.60;99.90
8436;DHT22;4255;48.730;9.156;2024-03-23T06:59:02;8.50;99.90
8436;DHT22;4255;48.730;9.156;2024-03-23T07:01:28;8.50;99.90
8436;DHT22;4255;48.730;9.156;2024-03-23T07:03:54;8.50;99.90
8436;DHT22;4255;48.730;9.156;2024-03-23T07:06:20;8.50;99.90
8436;DHT22;4255;48.730;9.156;2024-03-23T07:08:45;8.60;99.90
8436;DHT22;4255;48.730;9.156;2024-03-23T07:11:11;8.70;99.90
8436;DHT22;4255;48.730;9.156;2024-03-23T07:13:36;8.60;99.90
8436;DHT22;4255;48.730;9.156;2024-03-23T07:16:02;8.60;99.90
8436;DHT22;4255;48.730;9.156;2024-03-23T07:18:28;8.60;99.90
8436;DHT22;4255;48.730;9.156;2024-03-23T07:20:55;8.50;99.90
8436;DHT22;4255;48.730;9.156;2024-03-23T07:23:22;8.60;99.90
8436;DHT22;4255;48.730;9.156;2024-03-23T07:26:01;8.70;99.90
8436;DHT22;4255;48.730;9.156;2024-03-23T07:28:27;8.70;99.90
8436;DHT22;4255;48.730;9.156;2024-03-23T07:31:04;8.70;99.90
8436;DHT22;4255;48.730;9.156;2024-03-23T07:33:30;8.80;99.90
8436;DHT22;4255;48.730;9.156;2024-03-23T07:35:56;8.60;99.90
8436;DHT22;4255;48.730;9.156;2024-03-23T07:38:23;8.60;99.90
8436;DHT22;4255;48.730;9.156;2024-03-23T07:40:49;8.40;99.90
8436;DHT22;4255;48.730;9.156;2024-03-23T07:43:19;8.30;99.90
8436;DHT22;4255;48.730;9.156;2024-03-23T07:45:51;8.20;99.90
8436;DHT22;4255;48.730;9.156;2024-03-23T07:48:18;8.40;99.90
8436;DHT22;4255;48.730;9.156;2024-03-23T07:50:43;8.50;99.90
8436;DHT22;4255;48.730;9.156;2024-03-23T07:53:09;8.40;99.90
8436;DHT22;4255;48.730;9.156;2024-03-23T07:55:34;8.50;99.90
8436;DHT22;4255;48.730;9.156;2024-03-23T07:58:00;8.50;99.90
8436;DHT22;4255;48.730;9.156;2024-03-23T08:00:26;8.60;99.90
8436;DHT22;4255;48.730;9.156;2024-03-23T08:02:51;8.50;99.90
8436;DHT22;4255;48.730;9.156;2024-03-23T08:05:17;8.50;99.90
8436;DHT22;4255;48.730;9.156;2024-03-23T08:07:43;8.60;99.90
8436;DHT22;4255;48.730;9.156;2024-03-23T08:10:08;8.60;99.90
8436;DHT22;4255;48.730;9.156;2024-03-23T08:12:34;8.60;99.90
8436;DHT22;4255;48.730;9.156;2024-03-23T08:14:59;8.30;99.90
8436;DHT22;4255;48.730;9.156;2024-03-23T08:17:25;8.00;99.90
8436;DHT22;4255;48.730;9.156;2024-03-23T08:19:50;8.00;99.90
8436;DHT22;4255;48.730;9.156;2024-03-23T08:22:17;8.10;99.90
8436;DHT22;4255;48.730;9.156;2024-03-23T08:24:43;8.10;99.90
8436;DHT22;4255;48.730;9.156;2024-03-23T08:27:09;8.00;99.90
8436;DHT22;4255;48.730;9.156;2024-03-23T08:29:34;7.90;99.90
8436;DHT22;4255;48.730;9.156;2024-03-23T08:32:00;7.80;99.90
8436;DHT22;4255;48.730;9.156;2024-03-23T08:34:26;7.90;99.90
8436;DHT22;4255;48.730;9.156;2024-03-23T08:36:51;8.00;99.90
8436;DHT22;4255;48.730;9.156;2024-03-23T08:39:17;8.20;99.90
8436;DHT22;4255;48.730;9.156;2024-03-23T08:41:43;8.30;99.90
8436;DHT22;4255;48.730;9.156;2024-03-23T08:44:11;8.30;99.90
8436;DHT22;4255;48.730;9.156;2024-03-23T08:46:37;8.40;99.90
8436;DHT22;4255;48.730;9.156;2024-03-23T08:49:02;8.50;99.90
8436;DHT22;4255;48.730;9.156;2024-03-23T08:51:28;8.60;99.90
8436;DHT22;4255;48.730;9.156;2024-03-23T08:53:53;8.60;99.90
8436;DHT22;4255;48.730;9.156;2024-03-23T08:56:19;8.70;99.90
8436;DHT22;4255;48.730;9.156;2024-03-23T08:58:45;8.90;99.90
8436;DHT22;4255;48.730;9.156;2024-03-23T09:01:12;9.10;99.90
8436;DHT22;4255;48.730;9.156;2024-03-23T09:03:39;8.90;99.90
8436;DHT22;4255;48.730;9.156;2024-03-23T09:06:09;8.70;99.90
8436;DHT22;4255;48.730;9.156;2024-03-23T09:08:34;8.60;99.90
8436;DHT22;4255;48.730;9.156;2024-03-23T09:11:09;8.60;99.90
8436;DHT22;4255;48.730;9.156;2024-03-23T09:13:36;8.70;99.90
8436;DHT22;4255;48.730;9.156;2024-03-23T09:16:02;8.60;99.90
8436;DHT22;4255;48.730;9.156;2024-03-23T09:18:31;8.30;99.90
8436;DHT22;4255;48.730;9.156;2024-03-23T09:20:57;8.20;99.90
8436;DHT22;4255;48.730;9.156;2024-03-23T09:23:22;8.30;99.90
8436;DHT22;4255;48.730;9.156;2024-03-23T09:25:48;8.40;99.90
8436;DHT22;4255;48.730;9.156;2024-03-23T09:28:13;8.50;99.90
8436;DHT22;4255;48.730;9.156;2024-03-23T09:30:39;8.60;99.90
8436;DHT22;4255;48.730;9.156;2024-03-23T09:33:16;8.50;99.90
8436;DHT22;4255;48.730;9.156;2024-03-23T09:35:43;8.60;99.90
8436;DHT22;4255;48.730;9.156;2024-03-23T09:38:10;8.60;99.90
8436;DHT22;4255;48.730;9.156;2024-03-23T09:40:42;8.80;99.90
8436;DHT22;4255;48.730;9.156;2024-03-23T09:43:08;9.00;99.90
8436;DHT22;4255;48.730;9.156;2024-03-23T09:45:38;9.20;99.90
8436;DHT22;4255;48.730;9.156;2024-03-23T09:48:04;9.30;99.90
8436;DHT22;4255;48.730;9.156;2024-03-23T09:50:30;9.00;99.90
8436;DHT22;4255;48.730;9.156;2024-03-23T09:52:55;9.00;99.90
8436;DHT22;4255;48.730;9.156;2024-03-23T09:55:21;9.00;99.90
8436;DHT22;4255;48.730;9.156;2024-03-23T09:57:46;8.70;99.90
8436;DHT22;4255;48.730;9.156;2024-03-23T10:00:12;8.60;99.90
8436;DHT22;4255;48.730;9.156;2024-03-23T10:02:38;8.40;99.90
8436;DHT22;4255;48.730;9.156;2024-03-23T10:05:04;8.60;99.90
8436;DHT22;4255;48.730;9.156;2024-03-23T10:07:30;8.80;99.90
8436;DHT22;4255;48.730;9.156;2024-03-23T10:09:56;8.70;99.90
8436;DHT22;4255;48.730;9.156;2024-03-23T10:12:23;8.70;99.90
8436;DHT22;4255;48.730;9.156;2024-03-23T10:14:49;8.80;99.90
8436;DHT22;4255;48.730;9.156;2024-03-23T10:17:22;8.70;99.90
8436;DHT22;4255;48.730;9.156;2024-03-23T10:19:52;8.80;99.90
8436;DHT22;4255;48.730;9.156;2024-03-23T10:22:22;8.90;99.90
8436;DHT22;4255;48.730;9.156;2024-03-23T10:24:49;8.90;99.90
8436;DHT22;4255;48.730;9.156;2024-03-23T10:27:19;9.00;99.90
8436;DHT22;4255;48.730;9.156;2024-03-23T10:29:46;9.20;99.90
8436;DHT22;4255;48.730;9.156;2024-03-23T10:32:12;9.20;99.90
8436;DHT22;4255;48.730;9.156;2024-03-23T10:34:39;9.20;99.90
8436;DHT22;4255;48.730;9.156;2024-03-23T10:37:05;9.50;99.90
8436;DHT22;4255;48.730;9.156;2024-03-23T10:39:39;9.40;99.90
8436;DHT22;4255;48.730;9.156;2024-03-23T10:42:06;9.40;99.90
8436;DHT22;4255;48.730;9.156;2024-03-23T10:44:33;9.30;99.90
8436;DHT22;4255;48.730;9.156;2024-03-23T10:46:59;9.20;99.90
8436;DHT22;4255;48.730;9.156;2024-03-23T10:49:28;9.20;99.90
8436;DHT22;4255;48.730;9.156;2024-03-23T10:51:56;9.10;99.90
8436;DHT22;4255;48.730;9.156;2024-03-23T10:54:22;8.70;99.90
8436;DHT22;4255;48.730;9.156;2024-03-23T10:57:05;8.10;99.90
8436;DHT22;4255;48.730;9.156;2024-03-23T10:59:32;7.90;99.90
8436;DHT22;4255;48.730;9.156;2024-03-23T11:01:59;7.30;99.90
8436;DHT22;4255;48.730;9.156;2024-03-23T11:04:33;6.30;99.90
8436;DHT22;4255;48.730;9.156;2024-03-23T11:06:59;5.30;99.90
8436;DHT22;4255;48.730;9.156;2024-03-23T11:14:48;5.00;99.90
8436;DHT22;4255;48.730;9.156;2024-03-23T11:17:21;5.30;99.90
8436;DHT22;4255;48.730;9.156;2024-03-23T11:20:03;5.60;99.90
8436;DHT22;4255;48.730;9.156;2024-03-23T11:22:41;6.00;99.90
8436;DHT22;4255;48.730;9.156;2024-03-23T11:25:14;6.30;99.90
8436;DHT22;4255;48.730;9.156;2024-03-23T11:27:39;6.70;99.90
8436;DHT22;4255;48.730;9.156;2024-03-23T11:30:31;6.90;99.90
8436;DHT22;4255;48.730;9.156;2024-03-23T11:32:57;7.00;99.90
8436;DHT22;4255;48.730;9.156;2024-03-23T11:35:33;7.50;99.90
8436;DHT22;4255;48.730;9.156;2024-03-23T11:38:09;7.50;99.90
8436;DHT22;4255;48.730;9.156;2024-03-23T11:41:02;7.70;99.90
8436;DHT22;4255;48.730;9.156;2024-03-23T11:43:28;7.80;99.90
8436;DHT22;4255;48.730;9.156;2024-03-23T11:45:53;8.10;99.90
8436;DHT22;4255;48.730;9.156;2024-03-23T11:48:21;8.30;99.90
8436;DHT22;4255;48.730;9.156;2024-03-23T11:50:49;8.60;99.90
8436;DHT22;4255;48.730;9.156;2024-03-23T11:53:20;8.60;99.90
8436;DHT22;4255;48.730;9.156;2024-03-23T11:58:11;8.70;99.90
8436;DHT22;4255;48.730;9.156;2024-03-23T12:00:37;8.50;99.90
8436;DHT22;4255;48.730;9.156;2024-03-23T12:03:03;8.50;99.90
8436;DHT22;4255;48.730;9.156;2024-03-23T12:05:29;8.40;99.90
8436;DHT22;4255;48.730;9.156;2024-03-23T12:07:55;8.40;99.90
8436;DHT22;4255;48.730;9.156;2024-03-23T12:10:40;8.60;99.90
8436;DHT22;4255;48.730;9.156;2024-03-23T12:13:05;8.60;99.90
8436;DHT22;4255;48.730;9.156;2024-03-23T12:15:31;8.50;99.90
8436;DHT22;4255;48.730;9.156;2024-03-23T12:18:07;8.30;99.90
8436;DHT22;4255;48.730;9.156;2024-03-23T12:20:33;8.30;99.90
8436;DHT22;4255;48.730;9.156;2024-03-23T12:23:09;8.30;99.90
8436;DHT22;4255;48.730;9.156;2024-03-23T12:25:35;8.50;99.90
8436;DHT22;4255;48.730;9.156;2024-03-23T12:28:01;8.40;99.90
8436;DHT22;4255;48.730;9.156;2024-03-23T12:30:27;8.50;99.90
8436;DHT22;4255;48.730;9.156;2024-03-23T12:32:53;8.60;99.90
8436;DHT22;4255;48.730;9.156;2024-03-23T12:35:18;8.70;99.90
8436;DHT22;4255;48.730;9.156;2024-03-23T12:37:44;8.80;99.90
8436;DHT22;4255;48.730;9.156;2024-03-23T12:40:10;9.00;99.90
8436;DHT22;4255;48.730;9.156;2024-03-23T12:42:36;9.10;99.90
8436;DHT22;4255;48.730;9.156;2024-03-23T12:45:01;9.10;99.90
8436;DHT22;4255;48.730;9.156;2024-03-23T12:47:30;9.20;99.90
8436;DHT22;4255;48.730;9.156;2024-03-23T12:49:55;9.30;99.90
8436;DHT22;4255;48.730;9.156;2024-03-23T12:52:21;9.20;99.90
8436;DHT22;4255;48.730;9.156;2024-03-23T12:54:49;9.00;99.90
8436;DHT22;4255;48.730;9.156;2024-03-23T12:57:14;9.00;99.90
8436;DHT22;4255;48.730;9.156;2024-03-23T12:59:40;8.80;99.90
8436;DHT22;4255;48.730;9.156;2024-03-23T13:02:06;8.60;99.90
8436;DHT22;4255;48.730;9.156;2024-03-23T13:04:32;8.80;99.90
8436;DHT22;4255;48.730;9.156;2024-03-23T13:06:58;8.90;99.90
8436;DHT22;4255;48.730;9.156;2024-03-23T13:09:23;9.10;99.90
8436;DHT22;4255;48.730;9.156;2024-03-23T13:11:49;9.30;99.90
8436;DHT22;4255;48.730;9.156;2024-03-23T13:14:14;9.40;99.90
8436;DHT22;4255;48.730;9.156;2024-03-23T13:16:42;9.30;99.90
8436;DHT22;4255;48.730;9.156;2024-03-23T13:19:08;9.20;99.90
8436;DHT22;4255;48.730;9.156;2024-03-23T13:21:33;9.30;99.90
8436;DHT22;4255;48.730;9.156;2024-03-23T13:23:59;9.50;99.90
8436;DHT22;4255;48.730;9.156;2024-03-23T13:26:24;9.80;99.90
8436;DHT22;4255;48.730;9.156;2024-03-23T13:28:50;9.80;99.90
8436;DHT22;4255;48.730;9.156;2024-03-23T13:31:16;9.50;99.90
8436;DHT22;4255;48.730;9.156;2024-03-23T13:33:41;9.10;99.90
8436;DHT22;4255;48.730;9.156;2024-03-23T13:36:09;9.00;99.90
8436;DHT22;4255;48.730;9.156;2024-03-23T13:38:35;9.00;99.40
8436;DHT22;4255;48.730;9.156;2024-03-23T13:41:00;9.00;98.00
8436;DHT22;4255;48.730;9.156;2024-03-23T13:43:27;9.10;94.80
8436;DHT22;4255;48.730;9.156;2024-03-23T13:45:57;9.20;93.40
8436;DHT22;4255;48.730;9.156;2024-03-23T13:48:24;9.30;93.30
8436;DHT22;4255;48.730;9.156;2024-03-23T13:51:00;9.40;93.60
8436;DHT22;4255;48.730;9.156;2024-03-23T13:53:26;9.60;96.80
8436;DHT22;4255;48.730;9.156;2024-03-23T13:55:52;9.70;96.70
8436;DHT22;4255;48.730;9.156;2024-03-23T13:58:18;9.80;97.10
8436;DHT22;4255;48.730;9.156;2024-03-23T14:00:43;9.60;97.50
8436;DHT22;4255;48.730;9.156;2024-03-23T14:03:13;9.20;98.70
8436;DHT22;4255;48.730;9.156;2024-03-23T14:05:40;9.20;99.90
8436;DHT22;4255;48.730;9.156;2024-03-23T14:08:09;8.90;99.90
8436;DHT22;4255;48.730;9.156;2024-03-23T14:10:35;8.80;99.90
8436;DHT22;4255;48.730;9.156;2024-03-23T14:13:02;8.70;99.90
8436;DHT22;4255;48.730;9.156;2024-03-23T14:15:29;8.60;99.90
8436;DHT22;4255;48.730;9.156;2024-03-23T14:17:56;8.50;99.90
8436;DHT22;4255;48.730;9.156;2024-03-23T14:20:21;8.00;99.90
8436;DHT22;4255;48.730;9.156;2024-03-23T14:22:48;7.70;99.90
8436;DHT22;4255;48.730;9.156;2024-03-23T14:25:14;7.60;99.90
8436;DHT22;4255;48.730;9.156;2024-03-23T14:27:40;7.70;99.90
8436;DHT22;4255;48.730;9.156;2024-03-23T14:30:06;7.90;99.90
8436;DHT22;4255;48.730;9.156;2024-03-23T14:32:32;8.00;99.90
8436;DHT22;4255;48.730;9.156;2024-03-23T14:35:06;8.00;99.90
8436;DHT22;4255;48.730;9.156;2024-03-23T14:37:38;7.80;99.90
8436;DHT22;4255;48.730;9.156;2024-03-23T14:40:04;7.80;99.90
8436;DHT22;4255;48.730;9.156;2024-03-23T14:42:30;7.80;99.90
8436;DHT22;4255;48.730;9.156;2024-03-23T14:44:58;8.10;99.90
8436;DHT22;4255;48.730;9.156;2024-03-23T14:47:23;8.00;99.90
8436;DHT22;4255;48.730;9.156;2024-03-23T14:49:49;7.90;99.90
8436;DHT22;4255;48.730;9.156;2024-03-23T14:52:19;7.80;99.90
8436;DHT22;4255;48.730;9.156;2024-03-23T14:54:45;7.70;99.90
8436;DHT22;4255;48.730;9.156;2024-03-23T14:57:11;7.70;99.90
8436;DHT22;4255;48.730;9.156;2024-03-23T14:59:37;7.80;99.90
8436;DHT22;4255;48.730;9.156;2024-03-23T15:02:09;7.60;99.90
8436;DHT22;4255;48.730;9.156;2024-03-23T15:04:34;7.50;99.90
8436;DHT22;4255;48.730;9.156;2024-03-23T15:07:01;7.20;99.90
8436;DHT22;4255;48.730;9.156;2024-03-23T15:09:26;6.80;99.90
8436;DHT22;4255;48.730;9.156;2024-03-23T15:11:52;6.40;99.90
8436;DHT22;4255;48.730;9.156;2024-03-23T15:14:20;6.20;99.90
8436;DHT22;4255;48.730;9.156;2024-03-23T15:16:46;5.90;99.90
8436;DHT22;4255;48.730;9.156;2024-03-23T15:19:14;6.00;99.90
8436;DHT22;4255;48.730;9.156;2024-03-23T15:21:40;6.20;99.90
8436;DHT22;4255;48.730;9.156;2024-03-23T15:24:06;6.20;99.90
8436;DHT22;4255;48.730;9.156;2024-03-23T15:26:32;6.40;99.90
8436;DHT22;4255;48.730;9.156;2024-03-23T15:28:58;6.50;99.90
8436;DHT22;4255;48.730;9.156;2024-03-23T15:31:24;6.70;99.90
8436;DHT22;4255;48.730;9.156;2024-03-23T15:33:50;6.90;99.90
8436;DHT22;4255;48.730;9.156;2024-03-23T15:36:16;7.10;99.90
8436;DHT22;4255;48.730;9.156;2024-03-23T15:38:42;7.00;99.90
8436;DHT22;4255;48.730;9.156;2024-03-23T15:41:08;6.90;99.90
8436;DHT22;4255;48.730;9.156;2024-03-23T15:43:34;6.90;99.90
8436;DHT22;4255;48.730;9.156;2024-03-23T15:46:02;6.90;99.90
8436;DHT22;4255;48.730;9.156;2024-03-23T15:48:28;6.90;99.90
8436;DHT22;4255;48.730;9.156;2024-03-23T15:50:58;7.00;99.90
8436;DHT22;4255;48.730;9.156;2024-03-23T15:53:25;7.20;99.90
8436;DHT22;4255;48.730;9.156;2024-03-23T15:55:54;7.20;99.90
8436;DHT22;4255;48.730;9.156;2024-03-23T15:58:20;7.10;99.90
8436;DHT22;4255;48.730;9.156;2024-03-23T16:01:07;7.00;99.90
8436;DHT22;4255;48.730;9.156;2024-03-23T16:03:36;6.90;99.90
8436;DHT22;4255;48.730;9.156;2024-03-23T16:06:04;6.90;99.90
8436;DHT22;4255;48.730;9.156;2024-03-23T16:08:30;7.00;99.90
8436;DHT22;4255;48.730;9.156;2024-03-23T16:11:00;6.90;99.90
8436;DHT22;4255;48.730;9.156;2024-03-23T16:13:26;6.90;99.90
8436;DHT22;4255;48.730;9.156;2024-03-23T16:16:01;6.90;99.90
8436;DHT22;4255;48.730;9.156;2024-03-23T16:18:29;7.10;99.90
8436;DHT22;4255;48.730;9.156;2024-03-23T16:21:02;7.30;99.90
8436;DHT22;4255;48.730;9.156;2024-03-23T16:23:29;7.30;99.90
8436;DHT22;4255;48.730;9.156;2024-03-23T16:25:55;7.10;99.90
8436;DHT22;4255;48.730;9.156;2024-03-23T16:28:34;7.10;99.90
8436;DHT22;4255;48.730;9.156;2024-03-23T16:31:02;7.10;99.90
8436;DHT22;4255;48.730;9.156;2024-03-23T16:33:28;6.90;99.90
8436;DHT22;4255;48.730;9.156;2024-03-23T16:35:57;6.80;99.90
8436;DHT22;4255;48.730;9.156;2024-03-23T16:38:23;6.80;99.90
8436;DHT22;4255;48.730;9.156;2024-03-23T16:41:00;6.90;99.90
8436;DHT22;4255;48.730;9.156;2024-03-23T16:43:27;6.90;99.90
8436;DHT22;4255;48.730;9.156;2024-03-23T16:48:26;6.90;99.90
8436;DHT22;4255;48.730;9.156;2024-03-23T16:50:52;6.80;99.90
8436;DHT22;4255;48.730;9.156;2024-03-23T16:53:18;6.70;99.90
8436;DHT22;4255;48.730;9.156;2024-03-23T16:55:44;6.50;99.90
8436;DHT22;4255;48.730;9.156;2024-03-23T16:58:10;6.40;99.90
8436;DHT22;4255;48.730;9.156;2024-03-23T17:00:36;6.30;99.90
8436;DHT22;4255;48.730;9.156;2024-03-23T17:03:05;6.40;99.90
8436;DHT22;4255;48.730;9.156;2024-03-23T17:05:39;6.60;99.90
8436;DHT22;4255;48.730;9.156;2024-03-23T17:08:05;6.60;99.90
8436;DHT22;4255;48.730;9.156;2024-03-23T17:10:30;6.50;99.90
8436;DHT22;4255;48.730;9.156;2024-03-23T17:12:56;6.50;99.90
8436;DHT22;4255;48.730;9.156;2024-03-23T17:15:21;6.40;99.90